Time;durP1;ratioP1;P1;durP2;ratioP2;P2;SDS_P1;SDS_P2;PMS_P1;PMS_P2;Temp;Humidity;BMP_temperature;BMP_pressure;BME280_temperature;BME280_humidity;BME280_pressure;Samples;Min_cycle;Max_cycle;Signal;HPM_P1;HPM_P2
2022/05/25 00:02:10;;;;;;;7.30;6.37;;;11.90;99.90;;;;;;4992880;28;20422;-54
2022/05/25 00:04:36;;;;;;;6.90;6.13;;;11.80;99.90;;;;;;4992919;28;20192;-53
2022/05/25 00:07:02;;;;;;;7.80;6.70;;;11.80;99.90;;;;;;4992763;28;20192;-53
2022/05/25 00:09:27;;;;;;;6.73;6.13;;;11.80;99.90;;;;;;4993002;28;20200;-54
2022/05/25 00:11:53;;;;;;;9.33;6.63;;;11.80;99.90;;;;;;4991493;28;20420;-54
2022/05/25 00:14:19;;;;;;;7.10;6.40;;;11.70;99.90;;;;;;4991411;28;20179;-54
2022/05/25 00:16:44;;;;;;;9.50;6.87;;;11.80;99.90;;;;;;4991665;28;20188;-54
2022/05/25 00:21:55;;;;;;;8.70;6.87;;;11.80;99.90;;;;;;4991416;28;20250;-54
2022/05/25 00:24:21;;;;;;;9.70;6.70;;;11.70;99.90;;;;;;4993156;28;20467;-54
2022/05/25 00:26:46;;;;;;;10.00;6.83;;;11.70;99.90;;;;;;4993390;28;20502;-54
2022/05/25 00:29:14;;;;;;;7.70;6.83;;;11.70;99.90;;;;;;4994704;28;20223;-54
2022/05/25 00:31:40;;;;;;;7.77;6.97;;;11.60;99.90;;;;;;4994734;28;20184;-54
2022/05/25 00:34:05;;;;;;;12.20;7.37;;;11.60;99.90;;;;;;4994679;28;20890;-55
2022/05/25 00:36:31;;;;;;;13.03;7.83;;;11.60;99.90;;;;;;4994677;28;20196;-54
2022/05/25 00:38:57;;;;;;;8.70;7.40;;;11.60;99.90;;;;;;4994514;28;20216;-54
2022/05/25 00:41:29;;;;;;;8.27;7.47;;;11.60;99.90;;;;;;4994239;28;20635;-54
2022/05/25 00:43:57;;;;;;;8.07;7.27;;;11.50;99.90;;;;;;4994746;28;20173;-55
2022/05/25 00:46:23;;;;;;;8.20;6.90;;;11.60;99.90;;;;;;4994407;28;20416;-61
2022/05/25 00:48:54;;;;;;;8.83;7.40;;;11.60;99.90;;;;;;4994368;28;20467;-54
2022/05/25 00:51:29;;;;;;;7.87;7.07;;;11.60;99.90;;;;;;4994208;28;20403;-54
2022/05/25 00:54:02;;;;;;;7.67;6.70;;;11.60;99.90;;;;;;4994290;28;20411;-54
2022/05/25 00:56:31;;;;;;;8.00;7.20;;;11.60;99.90;;;;;;4994268;28;20423;-54
2022/05/25 00:59:18;;;;;;;14.70;7.80;;;11.50;99.90;;;;;;4994172;28;20466;-54
2022/05/25 01:01:44;;;;;;;9.63;7.90;;;11.50;99.90;;;;;;4994186;28;20539;-54
2022/05/25 01:04:11;;;;;;;10.77;7.10;;;11.50;99.90;;;;;;4993912;28;20510;-54
2022/05/25 01:06:52;;;;;;;10.37;7.77;;;11.60;99.90;;;;;;4994041;28;20218;-54
2022/05/25 01:09:46;;;;;;;11.00;8.50;;;11.60;99.90;;;;;;4993830;28;20483;-54
2022/05/25 01:12:34;;;;;;;9.43;7.57;;;11.50;99.90;;;;;;4994036;28;20769;-53
2022/05/25 01:15:03;;;;;;;11.27;8.30;;;11.50;99.90;;;;;;4993851;28;20565;-53
2022/05/25 01:17:49;;;;;;;11.00;8.67;;;11.50;99.90;;;;;;4993937;28;20473;-54
2022/05/25 01:20:28;;;;;;;9.00;7.63;;;11.40;99.90;;;;;;4994193;28;20508;-54
2022/05/25 01:23:31;;;;;;;10.60;8.37;;;11.40;99.90;;;;;;4994054;28;20438;-54
2022/05/25 01:26:27;;;;;;;10.83;8.83;;;11.30;99.90;;;;;;4993704;28;20415;-54
2022/05/25 01:29:32;;;;;;;11.90;9.00;;;11.30;99.90;;;;;;4993681;28;20404;-55
2022/05/25 01:32:31;;;;;;;14.00;8.60;;;11.30;99.90;;;;;;4993606;28;20439;-54
2022/05/25 01:35:25;;;;;;;11.27;8.90;;;11.30;99.90;;;;;;4993242;28;20443;-54
2022/05/25 01:38:21;;;;;;;11.57;9.73;;;11.30;99.90;;;;;;4993737;28;20830;-54
2022/05/25 01:41:02;;;;;;;10.17;8.83;;;11.30;99.90;;;;;;4993337;28;20447;-54
2022/05/25 01:43:58;;;;;;;12.50;9.23;;;11.30;99.90;;;;;;4993343;28;20416;-54
2022/05/25 01:46:27;;;;;;;10.30;9.00;;;11.30;99.90;;;;;;4993202;28;20495;-55
2022/05/25 01:48:55;;;;;;;10.13;9.13;;;11.30;99.90;;;;;;4993227;28;20400;-54
2022/05/25 01:51:30;;;;;;;11.40;9.80;;;11.30;99.90;;;;;;4993203;28;20428;-53
2022/05/25 01:54:00;;;;;;;10.13;9.07;;;11.20;99.90;;;;;;4992942;28;20440;-53
2022/05/25 01:56:29;;;;;;;10.77;9.40;;;11.20;99.90;;;;;;4993208;28;20825;-53
2022/05/25 01:59:00;;;;;;;9.37;8.40;;;11.20;99.90;;;;;;4992961;28;21007;-53
2022/05/25 02:01:26;;;;;;;11.77;9.90;;;11.10;1.00;;;;;;4993282;28;20415;-53
2022/05/25 02:07:00;;;;;;;10.13;9.03;;;11.10;1.00;;;;;;4992962;28;20339;-54
2022/05/25 02:10:00;;;;;;;10.83;9.60;;;11.10;1.00;;;;;;4992978;28;20479;-53
2022/05/25 02:12:46;;;;;;;10.63;9.40;;;11.10;1.00;;;;;;4992854;28;20797;-53
2022/05/25 02:15:35;;;;;;;10.37;9.03;;;11.10;1.00;;;;;;4992539;28;20400;-53
2022/05/25 02:18:32;;;;;;;12.50;9.80;;;11.10;1.00;;;;;;4989736;28;20431;-53
2022/05/25 02:21:11;;;;;;;11.50;9.47;;;11.10;1.00;;;;;;4991398;28;20459;-53
2022/05/25 02:23:56;;;;;;;11.13;9.93;;;11.10;1.00;;;;;;4992466;28;20411;-53
2022/05/25 02:26:28;;;;;;;11.67;9.30;;;11.10;1.00;;;;;;4991292;28;20428;-53
2022/05/25 02:29:11;;;;;;;11.43;9.40;;;11.20;1.00;;;;;;4992597;28;20415;-53
2022/05/25 02:31:46;;;;;;;19.33;10.87;;;11.20;1.00;;;;;;4992499;28;20415;-53
2022/05/25 02:34:16;;;;;;;10.90;9.80;;;11.20;1.00;;;;;;4992430;28;20411;-53
2022/05/25 02:36:42;;;;;;;11.07;9.90;;;11.30;1.00;;;;;;4992226;28;20415;-53
2022/05/25 02:39:10;;;;;;;15.03;10.90;;;11.20;1.00;;;;;;4992266;28;20463;-53
2022/05/25 02:41:42;;;;;;;11.97;9.90;;;11.20;1.00;;;;;;4992410;28;20443;-53
2022/05/25 02:44:08;;;;;;;16.70;10.53;;;11.20;1.00;;;;;;4992338;28;20431;-53
2022/05/25 02:46:34;;;;;;;12.33;11.03;;;11.20;1.00;;;;;;4991695;28;20884;-53
2022/05/25 02:49:00;;;;;;;13.00;10.67;;;11.10;1.00;;;;;;4992410;28;20173;-54
2022/05/25 02:51:26;;;;;;;13.10;10.70;;;11.10;1.00;;;;;;4992024;28;20220;-54
2022/05/25 02:53:52;;;;;;;18.03;12.53;;;11.10;1.00;;;;;;4992027;28;20165;-53
2022/05/25 02:56:17;;;;;;;14.17;11.40;;;11.00;1.00;;;;;;4991934;28;20478;-53
2022/05/25 02:58:43;;;;;;;14.20;10.20;;;11.00;1.00;;;;;;4990470;28;20755;-53
2022/05/25 03:01:09;;;;;;;18.50;11.97;;;10.90;1.00;;;;;;4992046;28;20185;-53
2022/05/25 03:03:38;;;;;;;13.80;11.47;;;10.90;3.40;;;;;;4991997;28;20176;-53
2022/05/25 03:06:04;;;;;;;12.70;11.13;;;10.90;25.90;;;;;;4990823;28;20188;-51
2022/05/25 03:08:31;;;;;;;15.17;12.13;;;10.90;99.90;;;;;;4991761;28;20479;-50
2022/05/25 03:10:56;;;;;;;12.90;11.50;;;10.80;99.90;;;;;;4991861;28;20426;-51
2022/05/25 03:13:22;;;;;;;14.37;11.37;;;10.70;99.90;;;;;;4991686;28;20510;-50
2022/05/25 03:15:47;;;;;;;15.80;11.90;;;10.70;99.90;;;;;;4991776;28;20176;-50
2022/05/25 03:18:13;;;;;;;14.00;11.67;;;10.70;1.00;;;;;;4992037;28;20264;-50
2022/05/25 03:20:38;;;;;;;12.83;10.97;;;10.70;1.00;;;;;;4991453;28;20642;-51
2022/05/25 03:23:04;;;;;;;13.37;10.90;;;10.60;1.00;;;;;;4991737;28;20190;-51
2022/05/25 03:25:30;;;;;;;14.10;11.13;;;10.60;99.90;;;;;;4991732;28;20183;-50
2022/05/25 03:27:55;;;;;;;16.20;11.47;;;10.60;93.00;;;;;;4991665;28;20173;-51
2022/05/25 03:30:21;;;;;;;14.00;12.50;;;10.60;97.50;;;;;;4991636;28;20507;-51
2022/05/25 03:32:47;;;;;;;14.87;11.50;;;10.60;1.00;;;;;;4991819;28;20596;-51
2022/05/25 03:35:14;;;;;;;15.03;13.20;;;10.50;1.00;;;;;;4991673;28;20420;-51
2022/05/25 03:37:40;;;;;;;14.90;12.27;;;10.60;99.90;;;;;;4991709;28;20419;-51
2022/05/25 03:40:10;;;;;;;14.00;11.97;;;10.50;99.90;;;;;;4991530;28;20462;-51
2022/05/25 03:42:37;;;;;;;16.07;12.40;;;10.60;1.00;;;;;;4991374;28;20195;-51
2022/05/25 03:45:04;;;;;;;16.43;11.97;;;10.60;99.90;;;;;;4991601;28;20404;-51
2022/05/25 03:47:31;;;;;;;15.00;12.17;;;10.60;99.90;;;;;;4991657;28;20587;-52
2022/05/25 03:49:56;;;;;;;14.30;12.27;;;10.60;1.00;;;;;;4991546;28;20434;-51
2022/05/25 03:52:22;;;;;;;17.30;13.37;;;10.50;1.00;;;;;;4991938;28;20423;-50
2022/05/25 03:54:48;;;;;;;20.60;13.27;;;10.50;99.90;;;;;;4991683;28;20168;-51
2022/05/25 03:57:14;;;;;;;17.70;13.70;;;10.60;99.90;;;;;;4991681;28;20415;-51
2022/05/25 03:59:39;;;;;;;16.53;13.37;;;10.60;1.00;;;;;;4995274;28;20459;-51
2022/05/25 04:02:05;;;;;;;19.60;14.03;;;10.60;65.10;;;;;;4994059;28;20177;-51
2022/05/25 04:04:31;;;;;;;18.87;13.33;;;10.60;99.90;;;;;;4995183;28;20177;-51
2022/05/25 04:06:56;;;;;;;17.50;13.87;;;10.50;99.90;;;;;;4995066;28;20191;-51
2022/05/25 04:09:22;;;;;;;16.10;12.20;;;10.60;22.70;;;;;;4995091;28;20646;-50
2022/05/25 04:11:49;;;;;;;17.13;13.70;;;10.60;99.90;;;;;;4994996;28;20183;-51
2022/05/25 04:14:15;;;;;;;19.23;13.13;;;10.60;99.90;;;;;;4995023;28;20259;-51
2022/05/25 04:16:42;;;;;;;15.60;12.97;;;10.70;99.90;;;;;;4995002;28;20419;-51
2022/05/25 04:19:08;;;;;;;15.30;12.53;;;10.70;99.90;;;;;;4994683;28;20470;-51
2022/05/25 04:21:34;;;;;;;20.50;13.80;;;10.80;99.90;;;;;;4994947;28;20406;-51
2022/05/25 04:24:00;;;;;;;18.37;14.63;;;10.80;4.70;;;;;;4994958;28;20168;-51
2022/05/25 04:26:28;;;;;;;18.60;14.17;;;10.90;1.00;;;;;;4995020;28;20575;-50
2022/05/25 04:28:53;;;;;;;19.47;13.13;;;10.90;1.00;;;;;;4994836;28;20415;-51
2022/05/25 04:31:19;;;;;;;17.20;14.37;;;11.00;99.90;;;;;;4994788;28;20435;-51
2022/05/25 04:33:45;;;;;;;19.80;14.90;;;11.10;99.90;;;;;;4994668;28;20184;-51
2022/05/25 04:36:10;;;;;;;16.17;14.10;;;11.20;14.70;;;;;;4994673;28;20173;-50
2022/05/25 04:38:36;;;;;;;16.07;13.30;;;11.30;1.00;;;;;;4994648;28;20169;-50
2022/05/25 04:41:02;;;;;;;17.10;13.30;;;11.40;35.80;;;;;;4994749;28;20184;-52
2022/05/25 04:43:28;;;;;;;16.00;13.17;;;11.60;1.00;;;;;;4994687;28;20180;-50
2022/05/25 04:45:54;;;;;;;16.97;13.63;;;11.60;99.90;;;;;;4994649;28;20758;-50
2022/05/25 04:48:23;;;;;;;19.53;13.80;;;11.70;99.90;;;;;;4994336;28;20165;-50
2022/05/25 04:50:49;;;;;;;14.63;12.33;;;11.80;99.90;;;;;;4994696;28;20424;-50
2022/05/25 04:53:17;;;;;;;14.73;11.83;;;11.90;99.90;;;;;;4994290;28;20408;-50
2022/05/25 04:58:35;;;;;;;13.60;11.77;;;12.10;1.00;;;;;;4994429;28;20512;-50
2022/05/25 05:01:02;;;;;;;13.43;12.03;;;12.10;1.00;;;;;;4994022;28;20431;-50
2022/05/25 05:03:28;;;;;;;15.90;11.80;;;12.20;1.00;;;;;;4994258;28;20446;-50
2022/05/25 05:05:55;;;;;;;12.90;11.47;;;12.40;1.00;;;;;;4994055;28;20473;-50
2022/05/25 05:08:21;;;;;;;12.10;10.50;;;12.40;1.00;;;;;;4994103;28;20776;-50
2022/05/25 05:10:47;;;;;;;14.33;11.33;;;12.60;1.00;;;;;;4993547;28;20415;-50
2022/05/25 05:13:13;;;;;;;13.80;10.60;;;12.60;1.00;;;;;;4993238;28;21340;-50
2022/05/25 05:15:42;;;;;;;15.07;10.70;;;12.80;1.00;;;;;;4994480;28;20219;-49
2022/05/25 05:18:08;;;;;;;15.17;11.07;;;12.80;1.00;;;;;;4994199;28;20187;-51
2022/05/25 05:20:34;;;;;;;11.07;9.90;;;13.00;1.00;;;;;;4993978;28;20459;-50
2022/05/25 05:22:59;;;;;;;13.10;10.40;;;13.20;1.00;;;;;;4993750;28;20482;-51
2022/05/25 05:25:26;;;;;;;12.10;10.43;;;13.30;1.00;;;;;;4993612;28;20184;-57
2022/05/25 05:27:51;;;;;;;12.37;10.20;;;13.40;1.00;;;;;;4986385;28;20655;-49
2022/05/25 05:30:20;;;;;;;10.60;9.50;;;13.50;1.00;;;;;;4974082;28;20417;-49
2022/05/25 05:32:46;;;;;;;10.53;9.43;;;13.70;1.00;;;;;;4980211;28;20440;-49
2022/05/25 05:35:12;;;;;;;11.90;9.17;;;13.90;1.00;;;;;;4993550;28;20435;-50
2022/05/25 05:37:48;;;;;;;12.20;9.10;;;14.10;99.90;;;;;;4975184;28;20192;-49
2022/05/25 05:40:16;;;;;;;11.60;9.20;;;14.10;99.90;;;;;;4975106;28;20236;-50
2022/05/25 05:42:44;;;;;;;59.70;38.03;;;14.20;99.90;;;;;;4973962;28;20440;-50
2022/05/25 05:45:18;;;;;;;9.30;8.33;;;14.30;99.90;;;;;;4977412;28;20539;-49
2022/05/25 05:47:50;;;;;;;10.80;8.57;;;14.30;99.90;;;;;;4993280;28;20501;-50
2022/05/25 05:50:17;;;;;;;11.20;9.30;;;14.30;99.90;;;;;;4989162;28;20456;-49
2022/05/25 05:52:43;;;;;;;10.30;8.60;;;14.40;99.90;;;;;;4973764;28;20504;-49
2022/05/25 05:55:09;;;;;;;11.67;7.90;;;14.50;99.90;;;;;;4973768;28;20519;-53
2022/05/25 05:57:36;;;;;;;9.60;7.20;;;14.70;99.90;;;;;;4966597;28;20288;-51
2022/05/25 06:00:05;;;;;;;8.60;7.70;;;14.90;99.90;;;;;;4976821;28;20468;-50
2022/05/25 06:02:31;;;;;;;14.20;8.47;;;14.90;99.90;;;;;;4973591;28;20459;-50
2022/05/25 06:04:56;;;;;;;8.80;7.90;;;15.00;99.90;;;;;;4973640;28;20416;-49
2022/05/25 06:07:22;;;;;;;8.07;7.37;;;14.90;99.90;;;;;;4973706;28;20233;-50
2022/05/25 06:09:47;;;;;;;10.03;7.60;;;15.10;99.90;;;;;;4973542;28;20232;-50
2022/05/25 06:12:14;;;;;;;12.80;6.77;;;15.30;99.90;;;;;;4986528;28;20575;-50
2022/05/25 06:14:40;;;;;;;13.13;6.77;;;15.40;99.90;;;;;;4992759;28;20232;-50
2022/05/25 06:19:50;;;;;;;8.60;6.57;;;15.80;99.90;;;;;;4973356;28;20459;-50
2022/05/25 06:22:18;;;;;;;9.77;6.27;;;16.10;99.90;;;;;;4984310;28;20909;-50
2022/05/25 06:24:49;;;;;;;10.07;6.70;;;16.20;99.90;;;;;;4992697;28;20166;-49
2022/05/25 06:27:15;;;;;;;7.10;6.13;;;16.30;99.90;;;;;;4981323;28;20847;-49
2022/05/25 06:29:43;;;;;;;8.53;7.03;;;16.50;99.90;;;;;;4973031;28;20408;-49
2022/05/25 06:32:10;;;;;;;7.03;6.33;;;16.70;99.90;;;;;;4982950;28;20983;-50
2022/05/25 06:34:37;;;;;;;8.23;7.03;;;16.80;99.90;;;;;;4992527;28;20419;-50
2022/05/25 06:37:04;;;;;;;7.33;6.50;;;16.80;99.90;;;;;;4983887;28;20428;-50
2022/05/25 06:39:34;;;;;;;7.50;6.00;;;16.80;99.90;;;;;;4972817;28;20836;-49
2022/05/25 06:42:00;;;;;;;7.77;5.47;;;16.90;99.90;;;;;;4979938;28;20520;-49
2022/05/25 06:44:25;;;;;;;9.90;6.60;;;17.20;99.90;;;;;;4992402;28;20814;-50
2022/05/25 06:46:51;;;;;;;6.70;5.90;;;17.40;99.90;;;;;;4986489;28;20632;-49
2022/05/25 06:49:17;;;;;;;7.80;6.03;;;17.50;99.90;;;;;;4972902;28;20197;-49
2022/05/25 06:51:43;;;;;;;7.27;6.43;;;17.50;99.90;;;;;;4976910;28;20185;-49
2022/05/25 06:54:12;;;;;;;8.57;6.90;;;17.40;99.90;;;;;;4992138;28;20498;-49
2022/05/25 06:56:38;;;;;;;7.23;5.97;;;17.30;99.90;;;;;;4992023;28;20431;-49
2022/05/25 06:59:03;;;;;;;7.07;6.10;;;17.30;99.90;;;;;;4991982;28;20470;-50
2022/05/25 07:01:29;;;;;;;6.93;5.70;;;17.50;99.90;;;;;;4991294;28;20185;-49
2022/05/25 07:03:54;;;;;;;9.43;5.30;;;17.80;99.90;;;;;;4972821;28;20272;-49
2022/05/25 07:06:22;;;;;;;6.83;6.17;;;17.90;99.90;;;;;;4971350;28;20177;-50
2022/05/25 07:08:47;;;;;;;7.20;5.83;;;18.00;99.90;;;;;;4990915;28;20702;-50
2022/05/25 07:11:13;;;;;;;5.07;4.57;;;17.80;99.90;;;;;;4992097;28;20415;-49
2022/05/25 07:13:40;;;;;;;8.07;5.80;;;17.80;99.90;;;;;;4974511;28;20598;-50
2022/05/25 07:16:09;;;;;;;9.43;6.33;;;18.00;99.90;;;;;;4972509;28;20420;-50
2022/05/25 07:18:35;;;;;;;5.90;5.30;;;18.00;99.90;;;;;;4988057;28;20438;-49
2022/05/25 07:21:09;;;;;;;6.27;5.10;;;18.00;99.90;;;;;;4991749;28;20781;-49
2022/05/25 07:23:36;;;;;;;6.47;5.60;;;18.30;99.90;;;;;;4976504;28;20309;-51
2022/05/25 07:26:03;;;;;;;6.27;5.67;;;18.30;99.90;;;;;;4972330;28;20437;-50
2022/05/25 07:28:29;;;;;;;8.00;5.40;;;18.30;99.90;;;;;;4985900;28;20432;-49
2022/05/25 07:31:01;;;;;;;5.87;5.10;;;18.40;99.90;;;;;;4991802;28;20426;-49
2022/05/25 07:33:27;;;;;;;6.10;5.37;;;18.50;99.90;;;;;;4978332;28;20181;-49
2022/05/25 07:35:53;;;;;;;8.27;5.70;;;18.90;99.90;;;;;;4972370;28;20452;-50
2022/05/25 07:38:18;;;;;;;10.07;6.93;;;19.30;99.90;;;;;;4989787;28;20514;-49
2022/05/25 07:40:45;;;;;;;5.57;5.07;;;19.50;99.90;;;;;;4991474;28;20663;-49
2022/05/25 07:43:18;;;;;;;12.10;5.70;;;19.40;99.90;;;;;;4976128;28;20203;-49
2022/05/25 07:45:47;;;;;;;7.53;5.00;;;19.60;99.90;;;;;;4972237;28;20419;-49
2022/05/25 07:48:13;;;;;;;7.10;5.30;;;19.30;99.90;;;;;;4972451;28;20758;-49
2022/05/25 07:50:40;;;;;;;7.57;4.67;;;18.80;99.90;;;;;;4972141;28;20435;-50
2022/05/25 07:53:55;;;;;;;5.70;4.60;;;18.90;99.90;;;;;;4986394;28;20184;-50
2022/05/25 07:55:53;;;;;;;11.67;5.60;;;19.20;99.90;;;;;;4991373;28;20431;-50
2022/05/25 07:58:19;;;;;;;5.67;5.10;;;19.40;99.90;;;;;;4975758;28;20436;-50
2022/05/25 08:00:45;;;;;;;6.53;4.90;;;19.30;99.90;;;;;;4972012;28;20962;-49
2022/05/25 08:05:59;;;;;;;7.17;5.17;;;18.90;99.90;;;;;;4991524;28;20232;-49
2022/05/25 08:08:25;;;;;;;4.80;4.40;;;18.60;99.90;;;;;;4976209;28;20499;-49
2022/05/25 08:10:54;;;;;;;8.20;5.30;;;18.30;99.90;;;;;;4971845;28;20417;-49
2022/05/25 08:13:22;;;;;;;5.50;5.00;;;18.80;99.90;;;;;;4985400;28;20431;-49
2022/05/25 08:15:47;;;;;;;8.20;5.67;;;19.50;99.90;;;;;;4991357;28;20415;-50
2022/05/25 08:18:15;;;;;;;5.10;4.60;;;20.20;99.90;;;;;;4978951;28;20437;-50
2022/05/25 08:20:42;;;;;;;5.33;4.83;;;20.80;99.90;;;;;;4971658;28;20213;-50
2022/05/25 08:23:10;;;;;;;5.60;5.10;;;21.20;99.90;;;;;;4982585;28;20520;-49
2022/05/25 08:25:36;;;;;;;6.97;5.20;;;20.80;99.90;;;;;;4991117;28;20419;-49
2022/05/25 08:28:03;;;;;;;5.53;4.80;;;20.70;99.90;;;;;;4975428;28;20447;-49
2022/05/25 08:30:29;;;;;;;4.67;4.30;;;20.70;99.90;;;;;;4971874;28;20604;-49
2022/05/25 08:32:55;;;;;;;6.30;4.67;;;21.00;99.90;;;;;;4979738;28;20779;-50
2022/05/25 08:35:21;;;;;;;5.07;4.60;;;21.40;99.90;;;;;;4959875;28;20421;-50
2022/05/25 08:37:46;;;;;;;6.53;4.60;;;21.20;99.90;;;;;;4952876;28;20509;-50
2022/05/25 08:40:17;;;;;;;5.00;4.60;;;20.90;99.90;;;;;;4970846;28;20209;-49
2022/05/25 08:43:04;;;;;;;6.90;6.23;;;20.70;99.90;;;;;;4971822;28;20248;-49
2022/05/25 08:45:39;;;;;;;6.50;3.43;;;21.10;99.90;;;;;;4973692;28;20441;-49
2022/05/25 08:48:06;;;;;;;4.87;3.60;;;21.60;99.90;;;;;;4975084;28;20420;-49
2022/05/25 08:50:33;;;;;;;4.43;3.70;;;21.60;99.90;;;;;;4975083;28;20448;-49
2022/05/25 08:53:00;;;;;;;3.63;3.33;;;21.70;99.90;;;;;;4976651;28;20437;-49
2022/05/25 08:55:42;;;;;;;3.97;3.67;;;22.00;99.90;;;;;;4993826;28;20467;-51
2022/05/25 08:58:11;;;;;;;3.33;3.07;;;22.60;99.90;;;;;;4990801;28;20444;-49
2022/05/25 09:00:38;;;;;;;3.87;3.30;;;22.60;99.90;;;;;;4974759;28;20474;-50
2022/05/25 09:03:20;;;;;;;4.50;3.40;;;22.70;99.90;;;;;;4977180;28;20447;-50
2022/05/25 09:05:51;;;;;;;3.37;2.80;;;22.50;99.90;;;;;;4994664;28;20423;-50
2022/05/25 09:08:34;;;;;;;3.50;3.07;;;22.70;99.90;;;;;;4990533;28;20484;-50
2022/05/25 09:11:07;;;;;;;2.50;2.30;;;23.00;99.90;;;;;;4974808;28;20411;-51
2022/05/25 09:13:41;;;;;;;3.53;2.60;;;23.00;99.90;;;;;;4991410;28;20435;-50
2022/05/25 09:16:15;;;;;;;4.07;3.20;;;22.80;99.90;;;;;;4993432;28;20534;-50
2022/05/25 09:19:00;;;;;;;3.87;3.33;;;22.70;99.90;;;;;;4974475;28;20523;-49
2022/05/25 09:21:31;;;;;;;7.07;2.87;;;21.80;99.90;;;;;;4976154;28;20434;-50
2022/05/25 09:24:01;;;;;;;6.27;4.17;;;21.10;99.90;;;;;;4993973;28;20405;-50
2022/05/25 09:26:27;;;;;;;3.20;3.00;;;20.70;99.90;;;;;;4991106;28;20461;-49
2022/05/25 09:28:57;;;;;;;5.03;3.20;;;20.60;99.90;;;;;;4974498;28;20499;-50
2022/05/25 09:31:31;;;;;;;4.70;3.10;;;20.90;99.90;;;;;;4975606;28;20612;-49
2022/05/25 09:34:00;;;;;;;3.60;3.30;;;21.60;99.90;;;;;;4993806;28;20403;-49
2022/05/25 09:36:33;;;;;;;4.27;3.87;;;22.10;99.90;;;;;;4992518;28;20407;-49
2022/05/25 09:39:04;;;;;;;5.00;4.17;;;22.40;99.90;;;;;;4974092;28;20417;-49
2022/05/25 09:41:31;;;;;;;3.97;3.67;;;22.20;99.90;;;;;;4975386;28;20906;-50
2022/05/25 09:44:00;;;;;;;4.13;3.83;;;22.20;99.90;;;;;;4974185;28;20424;-49
2022/05/25 09:46:28;;;;;;;3.63;3.33;;;22.20;99.90;;;;;;4990130;28;20428;-50
2022/05/25 09:48:59;;;;;;;7.90;3.50;;;22.40;99.90;;;;;;4983621;28;20965;-50
2022/05/25 09:51:52;;;;;;;4.60;3.40;;;22.00;99.90;;;;;;4971743;28;20435;-50
2022/05/25 09:54:27;;;;;;;4.93;3.23;;;21.30;99.90;;;;;;4986134;28;20482;-49
2022/05/25 09:57:05;;;;;;;3.93;3.50;;;21.50;99.90;;;;;;4993198;28;20786;-50
2022/05/25 09:59:33;;;;;;;3.90;3.40;;;21.50;99.90;;;;;;4979715;28;20973;-49
2022/05/25 10:01:59;;;;;;;3.70;3.37;;;21.60;99.90;;;;;;4974163;28;21220;-49
2022/05/25 10:04:51;;;;;;;4.80;3.73;;;21.90;99.90;;;;;;4985564;28;20498;-50
2022/05/25 10:07:36;;;;;;;3.57;3.17;;;21.60;99.90;;;;;;4982505;28;20239;-49
2022/05/25 10:10:09;;;;;;;3.63;2.40;;;22.10;99.90;;;;;;4973640;28;20448;-50
2022/05/25 10:12:44;;;;;;;5.60;3.57;;;23.00;99.90;;;;;;4982488;28;20429;-51
2022/05/25 10:15:26;;;;;;;3.23;2.77;;;23.20;99.90;;;;;;4975204;28;20423;-50
2022/05/25 10:17:53;;;;;;;2.77;2.57;;;22.60;99.90;;;;;;4973484;28;20424;-50
2022/05/25 10:20:40;;;;;;;2.60;2.40;;;22.30;99.90;;;;;;4986448;28;20479;-50
2022/05/25 10:23:27;;;;;;;3.30;2.63;;;22.30;99.90;;;;;;4992832;28;20522;-50
2022/05/25 10:25:54;;;;;;;3.03;2.70;;;22.20;99.90;;;;;;4975460;28;20941;-51
2022/05/25 10:28:32;;;;;;;2.73;2.53;;;22.40;99.90;;;;;;4989345;28;20449;-50
2022/05/25 10:36:45;;;;;;;2.67;2.47;;;21.20;99.90;;;;;;4974554;28;20836;-50
2022/05/25 10:37:08;;;;;;;2.80;2.03;;;21.00;99.90;;;;;;4975048;28;20431;-51
2022/05/25 10:39:35;;;;;;;2.67;2.23;;;20.70;99.90;;;;;;4972899;28;20515;-50
2022/05/25 10:42:18;;;;;;;4.60;2.73;;;20.50;99.90;;;;;;4972844;28;20921;-50
2022/05/25 10:45:04;;;;;;;4.00;2.80;;;20.80;99.90;;;;;;4972938;28;20500;-50
2022/05/25 10:47:57;;;;;;;3.10;2.90;;;21.20;99.90;;;;;;4973065;28;20816;-49
2022/05/25 10:50:35;;;;;;;2.60;2.40;;;20.70;99.90;;;;;;4972880;28;20891;-49
2022/05/25 10:53:26;;;;;;;3.10;2.80;;;20.20;99.90;;;;;;4973039;28;20438;-50
2022/05/25 10:56:09;;;;;;;4.23;2.70;;;19.70;99.90;;;;;;4972935;28;20408;-49
2022/05/25 10:58:44;;;;;;;3.83;2.57;;;19.80;99.90;;;;;;4973004;28;20412;-49
2022/05/25 11:01:39;;;;;;;5.90;2.87;;;19.90;99.90;;;;;;4972961;28;20427;-50
2022/05/25 11:04:37;;;;;;;2.87;2.67;;;20.30;99.90;;;;;;4970369;28;20425;-50
2022/05/25 11:07:26;;;;;;;3.40;2.37;;;21.20;99.90;;;;;;4971892;28;20986;-50
2022/05/25 11:10:25;;;;;;;2.50;2.33;;;21.60;99.90;;;;;;4972627;28;20428;-53
2022/05/25 11:13:13;;;;;;;2.33;2.13;;;22.40;99.90;;;;;;4973179;28;20867;-52
2022/05/25 11:15:46;;;;;;;2.83;1.90;;;22.60;99.90;;;;;;4972607;28;20421;-53
2022/05/25 11:18:23;;;;;;;6.53;2.53;;;23.20;99.90;;;;;;4972270;28;20447;-53
2022/05/25 11:21:00;;;;;;;2.30;2.07;;;23.00;99.90;;;;;;4972268;28;20813;-53
2022/05/25 11:23:35;;;;;;;1.87;1.77;;;22.60;99.90;;;;;;4972450;28;20416;-53
2022/05/25 11:26:15;;;;;;;2.03;1.90;;;22.30;99.90;;;;;;4972470;28;20412;-52
2022/05/25 11:29:03;;;;;;;1.67;1.57;;;22.10;99.90;;;;;;4972388;28;20443;-52
2022/05/25 11:31:43;;;;;;;2.10;1.90;;;21.80;99.90;;;;;;4972303;28;20401;-53
2022/05/25 11:34:36;;;;;;;2.80;2.10;;;22.20;99.90;;;;;;4972107;28;20405;-53
2022/05/25 11:37:23;;;;;;;2.83;1.73;;;22.90;99.90;;;;;;4972242;28;20405;-53
2022/05/25 11:40:07;;;;;;;2.23;2.07;;;22.70;99.90;;;;;;4972028;28;20456;-52
2022/05/25 11:42:41;;;;;;;4.17;2.53;;;21.90;99.90;;;;;;4972285;28;20405;-53
2022/05/25 11:45:35;;;;;;;2.23;1.50;;;21.20;99.90;;;;;;4972179;28;20408;-53
2022/05/25 11:48:39;;;;;;;2.30;1.60;;;20.70;99.90;;;;;;4972147;28;20769;-53
2022/05/25 11:51:29;;;;;;;1.97;1.70;;;20.40;99.90;;;;;;4972345;28;20428;-53
2022/05/25 11:54:30;;;;;;;2.43;2.23;;;20.60;99.90;;;;;;4972295;28;20424;-50
2022/05/25 11:57:10;;;;;;;2.50;1.90;;;21.30;99.90;;;;;;4972031;28;20527;-50
2022/05/25 12:00:04;;;;;;;4.30;2.40;;;22.10;99.90;;;;;;4972289;28;20468;-50
2022/05/25 12:03:06;;;;;;;3.73;2.00;;;22.10;99.90;;;;;;4972064;28;20416;-49
2022/05/25 12:05:58;;;;;;;2.70;1.93;;;21.50;99.90;;;;;;4972187;28;20404;-50
2022/05/25 12:08:57;;;;;;;3.93;2.10;;;21.00;99.90;;;;;;4972187;28;21036;-49
2022/05/25 12:11:41;;;;;;;3.57;2.00;;;20.50;99.90;;;;;;4972036;28;20484;-50
2022/05/25 12:14:31;;;;;;;3.10;2.23;;;20.10;99.90;;;;;;4972157;28;20414;-49
2022/05/25 12:17:08;;;;;;;3.60;2.00;;;19.80;99.90;;;;;;4971853;28;20500;-50
2022/05/25 12:19:36;;;;;;;6.00;2.23;;;19.60;99.90;;;;;;4974051;28;20526;-50
2022/05/25 12:22:08;;;;;;;2.30;2.10;;;19.40;99.90;;;;;;4975588;28;20416;-50
2022/05/25 12:24:43;;;;;;;3.30;1.90;;;20.10;99.90;;;;;;4975596;28;20483;-50
2022/05/25 12:27:15;;;;;;;3.10;1.90;;;20.80;99.90;;;;;;4975588;28;20431;-50
2022/05/25 12:29:45;;;;;;;1.80;1.70;;;21.60;99.90;;;;;;4975738;28;20412;-50
2022/05/25 12:32:12;;;;;;;2.27;2.10;;;21.80;99.90;;;;;;4975569;28;20444;-50
2022/05/25 12:34:46;;;;;;;2.20;2.00;;;22.10;99.90;;;;;;4975349;28;20479;-50
2022/05/25 12:37:17;;;;;;;2.53;2.10;;;21.50;99.90;;;;;;4975672;28;20847;-53
2022/05/25 12:39:42;;;;;;;4.20;1.90;;;20.90;99.90;;;;;;4975148;28;20539;-52
2022/05/25 12:42:23;;;;;;;5.57;1.80;;;20.50;99.90;;;;;;4975270;28;21161;-52
2022/05/25 12:50:47;;;;;;;3.33;1.60;;;20.80;99.90;;;;;;4974978;28;20435;-53
2022/05/25 12:53:26;;;;;;;1.30;1.20;;;21.10;99.90;;;;;;4974925;28;20420;-53
2022/05/25 12:55:57;;;;;;;2.90;1.60;;;22.50;99.90;;;;;;4974993;28;20420;-53
2022/05/25 12:58:41;;;;;;;2.23;1.50;;;23.80;99.90;;;;;;4975054;28;21102;-53
2022/05/25 13:01:27;;;;;;;1.27;1.17;;;24.50;99.90;;;;;;4974890;28;20727;-52
2022/05/25 13:03:58;;;;;;;1.97;1.20;;;24.60;99.90;;;;;;4974522;28;20444;-52
2022/05/25 13:06:27;;;;;;;1.87;1.73;;;23.70;99.90;;;;;;4974731;28;20428;-54
2022/05/25 13:08:53;;;;;;;1.47;1.37;;;22.60;99.90;;;;;;4974823;28;20500;-52
2022/05/25 13:11:42;;;;;;;1.30;1.20;;;21.70;99.90;;;;;;4975104;28;21111;-53
2022/05/25 13:14:16;;;;;;;1.47;1.37;;;21.20;99.90;;;;;;4976002;28;20448;-53
2022/05/25 13:16:45;;;;;;;2.80;1.20;;;21.70;99.90;;;;;;4976164;28;20431;-52
2022/05/25 13:19:13;;;;;;;1.53;1.43;;;23.00;99.90;;;;;;4975961;28;20495;-50
2022/05/25 13:21:41;;;;;;;3.30;1.27;;;23.90;99.90;;;;;;4974734;28;20428;-53
2022/05/25 13:24:32;;;;;;;5.23;1.30;;;23.90;99.90;;;;;;4975988;28;20460;-51
2022/05/25 13:27:03;;;;;;;1.23;1.10;;;24.30;99.90;;;;;;4976162;28;20413;-52
2022/05/25 13:29:35;;;;;;;3.17;1.50;;;24.70;99.90;;;;;;4975866;28;20416;-56
2022/05/25 13:32:11;;;;;;;1.23;1.10;;;24.80;99.90;;;;;;4975308;28;20452;-52
2022/05/25 13:34:37;;;;;;;4.53;1.13;;;25.10;99.90;;;;;;4975887;28;20413;-53